Anvik, Alaska
Current Conditions -  °F | °C
As of 1:56 PM on Thursday 27 Nov 2014 (Local Time) from PANV Reporting Station
Overcast Overcast  
Wind Chill: -6°   Ceiling: 2300
Heat Index:   Visibility: 7mi
Dew Point:   Wind: 10mph
Humidity: 79%   Direction: 50°NE
Pressure: 30.11"   Gusts: NA
Location:  62.66°N, 160.21°W
Report Text: PANV 272256Z AUTO 05009KT 7SM SCT008 OVC023 M13/M16 A3011 RMK AO1
Loading
Personal Weather Stations






























Interactive Weather Map New forecast layout! Learn more

10-Day Weather Forecast

Advertisements
Track Severe Weather on mobile